Time;durP1;ratioP1;P1;durP2;ratioP2;P2;SDS_P1;SDS_P2;PMS_P1;PMS_P2;Temp;Humidity;BMP_temperature;BMP_pressure;BME280_temperature;BME280_humidity;BME280_pressure;Samples;Min_cycle;Max_cycle;Signal;HPM_P1;HPM_P2
2021/10/19 00:00:34;;;;;;;51.30;26.23;;;8.60;99.90;;;;;;5067523;28;20033;-69
2021/10/19 00:03:01;;;;;;;49.28;24.80;;;8.60;99.90;;;;;;5052444;28;20074;-69
2021/10/19 00:05:27;;;;;;;46.92;25.30;;;8.60;99.90;;;;;;5052416;28;20044;-69
2021/10/19 00:07:53;;;;;;;51.97;27.33;;;8.60;99.90;;;;;;5067612;28;20020;-69
2021/10/19 00:10:20;;;;;;;51.58;25.13;;;8.50;99.90;;;;;;5050850;28;20090;-68
2021/10/19 00:12:46;;;;;;;49.60;26.02;;;8.50;99.90;;;;;;5052069;28;20044;-69
2021/10/19 00:15:14;;;;;;;46.38;24.75;;;8.30;99.90;;;;;;5052222;28;20478;-69
2021/10/19 00:17:42;;;;;;;45.03;24.55;;;8.30;99.90;;;;;;5067498;28;20029;-69
2021/10/19 00:20:11;;;;;;;45.25;24.63;;;8.40;99.90;;;;;;5052433;28;20031;-69
2021/10/19 00:22:37;;;;;;;43.00;24.35;;;8.50;99.90;;;;;;5051953;28;20486;-69
2021/10/19 00:25:06;;;;;;;42.10;23.02;;;8.40;99.90;;;;;;5050957;28;20645;-69
2021/10/19 00:27:36;;;;;;;46.53;25.35;;;8.40;99.90;;;;;;5052620;28;20107;-69
2021/10/19 00:30:07;;;;;;;45.72;24.50;;;8.30;99.90;;;;;;5071968;28;20401;-69
2021/10/19 00:32:33;;;;;;;47.40;24.38;;;8.30;99.90;;;;;;5055096;28;20045;-69
2021/10/19 00:34:58;;;;;;;39.00;23.02;;;8.30;99.90;;;;;;5071573;28;20033;-69
2021/10/19 00:37:24;;;;;;;48.90;25.60;;;8.40;99.90;;;;;;5055852;28;20128;-69
2021/10/19 00:39:50;;;;;;;45.08;24.25;;;8.30;99.90;;;;;;5056354;28;20108;-69
2021/10/19 00:42:15;;;;;;;42.17;22.40;;;8.30;99.90;;;;;;5071367;28;20037;-69
2021/10/19 00:44:43;;;;;;;41.22;23.67;;;8.30;99.90;;;;;;5056566;28;20075;-68
2021/10/19 00:47:09;;;;;;;45.78;24.02;;;8.20;99.90;;;;;;5055868;28;20025;-69
2021/10/19 00:49:35;;;;;;;41.95;20.77;;;8.20;99.90;;;;;;5071202;28;20098;-69
2021/10/19 00:52:01;;;;;;;38.67;21.15;;;8.10;99.90;;;;;;5071561;28;20025;-69
2021/10/19 00:54:27;;;;;;;41.78;20.50;;;8.10;99.90;;;;;;5055600;28;20048;-69
2021/10/19 00:56:54;;;;;;;42.10;22.45;;;8.10;99.90;;;;;;5055936;28;20037;-69
2021/10/19 00:59:20;;;;;;;39.13;21.92;;;8.00;99.90;;;;;;5055921;28;20037;-69
2021/10/19 01:01:47;;;;;;;37.35;20.17;;;8.00;99.90;;;;;;5071268;28;20032;-69
2021/10/19 01:04:13;;;;;;;44.28;21.98;;;8.00;99.90;;;;;;5054702;28;20045;-68
2021/10/19 01:06:39;;;;;;;37.67;21.73;;;8.00;99.90;;;;;;5055702;28;20029;-69
2021/10/19 01:09:06;;;;;;;42.85;21.80;;;8.00;99.90;;;;;;5070883;28;20057;-69
2021/10/19 01:11:33;;;;;;;41.67;22.48;;;7.90;99.90;;;;;;5070743;28;20025;-69
2021/10/19 01:13:59;;;;;;;42.90;22.30;;;7.90;99.90;;;;;;5055479;28;20040;-69
2021/10/19 01:16:24;;;;;;;40.88;22.58;;;8.00;99.90;;;;;;5055217;28;20033;-69
2021/10/19 01:18:50;;;;;;;43.70;23.65;;;7.80;99.90;;;;;;5055073;28;20512;-69
2021/10/19 01:21:16;;;;;;;38.75;22.15;;;7.70;99.90;;;;;;5055266;28;20490;-69
2021/10/19 01:23:42;;;;;;;43.03;22.58;;;7.70;99.90;;;;;;5070384;28;20420;-69
2021/10/19 01:26:09;;;;;;;42.38;22.23;;;7.80;99.90;;;;;;5055245;28;20044;-69
2021/10/19 01:28:42;;;;;;;44.85;23.40;;;7.80;99.90;;;;;;5070383;28;20029;-69
2021/10/19 01:31:12;;;;;;;43.13;23.75;;;7.80;99.90;;;;;;5055200;28;20033;-69
2021/10/19 01:33:39;;;;;;;47.03;23.08;;;7.80;99.90;;;;;;5070394;28;20041;-69
2021/10/19 01:36:12;;;;;;;44.22;23.58;;;7.90;99.90;;;;;;5070624;28;20056;-68
2021/10/19 01:38:40;;;;;;;48.80;24.08;;;7.80;99.90;;;;;;5069724;28;20036;-68
2021/10/19 01:41:05;;;;;;;49.58;26.02;;;7.70;99.90;;;;;;5054247;28;20036;-68
2021/10/19 01:43:31;;;;;;;50.80;26.70;;;7.70;99.90;;;;;;5054607;28;20041;-68
2021/10/19 01:46:00;;;;;;;48.35;24.52;;;7.70;99.90;;;;;;5054945;28;20082;-68
2021/10/19 01:48:28;;;;;;;41.83;22.52;;;7.60;99.90;;;;;;5069975;28;20064;-68
2021/10/19 01:50:55;;;;;;;44.58;22.83;;;7.70;99.90;;;;;;5070261;28;20032;-68
2021/10/19 01:53:22;;;;;;;40.83;21.80;;;7.60;99.90;;;;;;5070097;28;20033;-68
2021/10/19 01:55:49;;;;;;;42.88;23.05;;;7.60;99.90;;;;;;5053703;28;20051;-69
2021/10/19 01:58:21;;;;;;;41.83;21.73;;;7.60;99.90;;;;;;5054902;28;20029;-68
2021/10/19 02:00:47;;;;;;;43.00;21.40;;;7.40;99.90;;;;;;5070340;28;20632;-68
2021/10/19 02:03:13;;;;;;;39.47;21.90;;;7.50;99.90;;;;;;5070062;28;20044;-68
2021/10/19 02:05:39;;;;;;;42.80;21.95;;;7.40;99.90;;;;;;5054436;28;20396;-68
2021/10/19 02:08:06;;;;;;;40.60;22.90;;;7.50;99.90;;;;;;5069918;28;20020;-68
2021/10/19 02:10:34;;;;;;;44.60;22.30;;;7.50;99.90;;;;;;5069830;28;20044;-68
2021/10/19 02:13:01;;;;;;;38.60;20.65;;;7.40;99.90;;;;;;5054106;28;20029;-68
2021/10/19 02:15:27;;;;;;;40.83;21.40;;;7.40;99.90;;;;;;5069697;28;20044;-68
2021/10/19 02:17:57;;;;;;;39.88;20.60;;;7.40;99.90;;;;;;5069789;28;20029;-68
2021/10/19 02:20:23;;;;;;;38.20;21.05;;;7.50;99.90;;;;;;5054407;28;20035;-68
2021/10/19 02:22:50;;;;;;;35.38;19.27;;;7.60;99.90;;;;;;5054211;28;20041;-68
2021/10/19 02:25:16;;;;;;;37.53;20.20;;;7.70;99.90;;;;;;5054107;28;20025;-68
2021/10/19 02:27:43;;;;;;;33.58;18.80;;;7.70;99.90;;;;;;5054043;28;20037;-68
2021/10/19 02:30:10;;;;;;;33.78;19.73;;;7.80;99.90;;;;;;5054068;28;20112;-68
2021/10/19 02:32:39;;;;;;;32.35;18.63;;;7.80;99.90;;;;;;5069170;28;20040;-68
2021/10/19 02:35:08;;;;;;;32.90;17.75;;;7.80;99.90;;;;;;5069282;28;20116;-68
2021/10/19 02:37:34;;;;;;;31.95;17.40;;;7.80;99.90;;;;;;5069315;28;20075;-68
2021/10/19 02:40:00;;;;;;;30.25;17.58;;;7.80;99.90;;;;;;5054138;28;20053;-68
2021/10/19 02:42:26;;;;;;;30.80;17.45;;;7.80;99.90;;;;;;5069105;28;20067;-68
2021/10/19 02:44:51;;;;;;;29.98;17.15;;;7.80;99.90;;;;;;5069374;28;20148;-69
2021/10/19 02:47:17;;;;;;;32.65;18.90;;;7.80;99.90;;;;;;5069375;28;20028;-68
2021/10/19 02:49:43;;;;;;;32.20;19.20;;;7.70;99.90;;;;;;5052153;28;20374;-69
2021/10/19 02:52:09;;;;;;;31.52;18.60;;;7.60;99.90;;;;;;5069238;28;20432;-69
2021/10/19 02:54:36;;;;;;;35.20;18.45;;;7.60;99.90;;;;;;5068984;28;20041;-69
2021/10/19 02:57:03;;;;;;;32.35;17.55;;;7.60;99.90;;;;;;5068732;28;20545;-69
2021/10/19 02:59:29;;;;;;;31.10;18.40;;;7.50;99.90;;;;;;5053343;28;20047;-69
2021/10/19 03:01:54;;;;;;;31.45;17.10;;;7.60;99.90;;;;;;5053417;28;20029;-69
2021/10/19 03:04:20;;;;;;;32.80;18.00;;;7.70;99.90;;;;;;5053656;28;20448;-69
2021/10/19 03:06:46;;;;;;;30.30;17.55;;;7.70;99.90;;;;;;5053273;28;20086;-69
2021/10/19 03:09:12;;;;;;;29.55;16.55;;;7.70;99.90;;;;;;5053187;28;20041;-69
2021/10/19 03:11:37;;;;;;;30.65;17.10;;;7.80;99.90;;;;;;5053123;28;20033;-69
2021/10/19 03:14:03;;;;;;;31.27;17.48;;;7.70;99.90;;;;;;5068755;28;20033;-69
2021/10/19 03:16:29;;;;;;;30.58;18.00;;;7.80;99.90;;;;;;5051996;28;20029;-69
2021/10/19 03:18:55;;;;;;;30.90;18.05;;;7.70;99.90;;;;;;5052756;28;20053;-69
2021/10/19 03:21:20;;;;;;;29.25;17.40;;;7.70;99.90;;;;;;5053049;28;20104;-69
2021/10/19 03:23:46;;;;;;;32.22;16.88;;;7.80;99.90;;;;;;5052872;28;20094;-69
2021/10/19 03:26:16;;;;;;;25.48;16.23;;;7.90;99.90;;;;;;5052867;28;20037;-69
2021/10/19 03:28:43;;;;;;;28.92;16.33;;;7.90;99.90;;;;;;5052631;28;20125;-69
2021/10/19 03:31:09;;;;;;;25.17;15.25;;;8.10;99.90;;;;;;5052762;28;20489;-69
2021/10/19 03:33:35;;;;;;;26.75;15.52;;;8.10;99.90;;;;;;5052496;28;20036;-69
2021/10/19 03:36:03;;;;;;;28.85;16.15;;;8.20;99.90;;;;;;5051745;28;20037;-69
2021/10/19 03:38:29;;;;;;;25.55;16.30;;;8.20;99.90;;;;;;5052856;28;20029;-69
2021/10/19 03:40:54;;;;;;;27.35;16.55;;;8.10;99.90;;;;;;5068268;28;20385;-69
2021/10/19 03:43:20;;;;;;;26.88;15.43;;;8.10;99.90;;;;;;5044667;28;20104;-69
2021/10/19 03:45:46;;;;;;;26.77;15.88;;;8.10;99.90;;;;;;5050882;28;20108;-69
2021/10/19 03:48:12;;;;;;;28.02;16.23;;;8.10;99.90;;;;;;5051654;28;20461;-69
2021/10/19 03:50:37;;;;;;;26.33;15.45;;;8.20;99.90;;;;;;5067530;28;20037;-68
2021/10/19 03:53:03;;;;;;;28.42;15.68;;;8.30;99.90;;;;;;5052266;28;20037;-68
2021/10/19 03:55:30;;;;;;;27.05;15.77;;;8.30;99.90;;;;;;5052847;28;20037;-68
2021/10/19 03:57:55;;;;;;;29.20;16.48;;;8.20;99.90;;;;;;5052667;28;20029;-69
2021/10/19 04:00:21;;;;;;;28.67;15.25;;;8.20;99.90;;;;;;5052460;28;20040;-68
2021/10/19 04:02:47;;;;;;;31.48;15.70;;;8.30;99.90;;;;;;5043591;28;20078;-71
2021/10/19 04:05:13;;;;;;;28.13;15.82;;;8.40;99.90;;;;;;5037908;28;20029;-66
2021/10/19 04:07:39;;;;;;;28.25;16.33;;;8.40;99.90;;;;;;5047702;28;20070;-65
2021/10/19 04:10:06;;;;;;;26.45;14.68;;;8.50;99.90;;;;;;5047473;28;20049;-66
2021/10/19 04:12:32;;;;;;;28.35;15.48;;;8.50;99.90;;;;;;5035007;28;20501;-66
2021/10/19 04:14:57;;;;;;;25.58;14.63;;;8.60;99.90;;;;;;5070825;28;20036;-66
2021/10/19 04:17:23;;;;;;;38.28;16.38;;;8.60;99.90;;;;;;5087664;28;20170;-67
2021/10/19 04:19:49;;;;;;;26.08;14.70;;;8.60;99.90;;;;;;5071801;28;20063;-65
2021/10/19 04:22:15;;;;;;;27.25;16.25;;;8.60;99.90;;;;;;5072080;28;20032;-67
2021/10/19 04:24:41;;;;;;;27.80;15.00;;;8.60;99.90;;;;;;5071835;28;20107;-66
2021/10/19 04:27:07;;;;;;;26.80;16.23;;;8.70;99.90;;;;;;5072094;28;20052;-67
2021/10/19 04:29:35;;;;;;;31.77;16.35;;;8.80;99.90;;;;;;5087352;28;20110;-66
2021/10/19 04:32:04;;;;;;;29.83;15.65;;;8.70;99.90;;;;;;5072150;28;20198;-67
2021/10/19 04:34:30;;;;;;;31.25;16.10;;;8.70;99.90;;;;;;5071989;28;20029;-67
2021/10/19 04:36:56;;;;;;;32.58;16.42;;;8.80;99.90;;;;;;5087250;28;20123;-68
2021/10/19 04:39:21;;;;;;;32.83;16.42;;;8.90;99.90;;;;;;5087629;28;20064;-65
2021/10/19 04:41:47;;;;;;;27.33;16.83;;;8.90;99.90;;;;;;5071871;28;20421;-65
2021/10/19 04:44:13;;;;;;;30.98;15.65;;;9.00;99.90;;;;;;5056617;28;20029;-65
2021/10/19 04:46:40;;;;;;;33.28;16.50;;;8.90;99.90;;;;;;5067378;28;20064;-65
2021/10/19 04:49:07;;;;;;;28.65;16.05;;;8.90;99.90;;;;;;5051738;28;20029;-65
2021/10/19 04:51:33;;;;;;;31.23;16.63;;;8.80;99.90;;;;;;5051662;28;20057;-65
2021/10/19 04:54:00;;;;;;;28.63;16.52;;;8.80;99.90;;;;;;5051702;28;20070;-65
2021/10/19 04:56:25;;;;;;;31.02;16.70;;;8.80;99.90;;;;;;5051691;28;20025;-66
2021/10/19 04:58:51;;;;;;;28.33;14.90;;;8.70;99.90;;;;;;5051655;28;20047;-66
2021/10/19 05:01:17;;;;;;;30.88;16.85;;;8.70;99.90;;;;;;5050744;28;20040;-65
2021/10/19 05:03:46;;;;;;;28.08;15.70;;;8.70;99.90;;;;;;5051884;28;20032;-68
2021/10/19 05:06:13;;;;;;;30.98;16.85;;;8.70;99.90;;;;;;5051718;28;20044;-66
2021/10/19 05:08:39;;;;;;;31.50;16.98;;;8.70;99.90;;;;;;5067256;28;20037;-66
2021/10/19 05:11:05;;;;;;;29.45;16.10;;;8.70;99.90;;;;;;5067281;28;20440;-64
2021/10/19 05:13:31;;;;;;;35.05;17.33;;;8.70;99.90;;;;;;5051690;28;20040;-65
2021/10/19 05:15:56;;;;;;;30.35;16.25;;;8.60;99.90;;;;;;5035067;28;20484;-66
2021/10/19 05:18:25;;;;;;;29.45;17.25;;;8.70;99.90;;;;;;5035390;28;20052;-66
2021/10/19 05:20:51;;;;;;;35.40;17.40;;;8.70;99.90;;;;;;5050814;28;20030;-65
2021/10/19 05:23:17;;;;;;;34.33;18.23;;;8.70;99.90;;;;;;5050633;28;20052;-66
2021/10/19 05:25:42;;;;;;;34.25;17.92;;;8.70;99.90;;;;;;5050519;28;20029;-67
2021/10/19 05:28:08;;;;;;;35.63;17.92;;;8.70;99.90;;;;;;5051069;28;20037;-67
2021/10/19 05:30:35;;;;;;;32.30;17.75;;;8.70;99.90;;;;;;5035161;28;20022;-67
2021/10/19 05:33:03;;;;;;;32.60;17.55;;;8.70;99.90;;;;;;5034960;28;20433;-67
2021/10/19 05:35:33;;;;;;;33.60;17.50;;;8.70;99.90;;;;;;5049969;28;20427;-66
2021/10/19 05:37:59;;;;;;;35.15;17.75;;;8.70;99.90;;;;;;5035030;28;20435;-66
2021/10/19 05:40:26;;;;;;;34.42;18.02;;;8.80;99.90;;;;;;5034751;28;20502;-66
2021/10/19 05:42:51;;;;;;;36.47;17.65;;;9.00;99.90;;;;;;5050379;28;20083;-66
2021/10/19 05:45:18;;;;;;;31.55;17.90;;;9.00;99.90;;;;;;5034815;28;20045;-66
2021/10/19 05:47:45;;;;;;;35.13;17.30;;;9.00;99.90;;;;;;5034755;28;20035;-67
2021/10/19 05:50:14;;;;;;;36.83;17.85;;;9.10;99.90;;;;;;5041224;28;20047;-66
2021/10/19 05:52:41;;;;;;;30.35;15.63;;;9.10;99.90;;;;;;5054434;28;20086;-67
2021/10/19 05:55:08;;;;;;;39.22;17.77;;;9.10;99.90;;;;;;5069968;28;20037;-66
2021/10/19 05:57:34;;;;;;;34.25;17.45;;;9.10;99.90;;;;;;5054309;28;20061;-67
2021/10/19 06:00:00;;;;;;;33.35;16.95;;;8.90;99.90;;;;;;5069757;28;20083;-67
2021/10/19 06:02:26;;;;;;;36.80;17.90;;;8.90;99.90;;;;;;5054601;28;20029;-67
2021/10/19 06:04:52;;;;;;;37.67;18.73;;;8.90;99.90;;;;;;5054549;28;20128;-66
2021/10/19 06:07:17;;;;;;;39.60;18.50;;;8.90;99.90;;;;;;5053108;28;20108;-68
2021/10/19 06:09:43;;;;;;;38.53;19.17;;;8.80;99.90;;;;;;5054282;28;20119;-67
2021/10/19 06:12:09;;;;;;;38.53;19.67;;;8.80;99.90;;;;;;5069917;28;20061;-68
2021/10/19 06:14:35;;;;;;;34.92;18.42;;;8.80;99.90;;;;;;5054124;28;20116;-68
2021/10/19 06:17:01;;;;;;;39.67;19.80;;;8.80;99.90;;;;;;5054292;28;20106;-68
2021/10/19 06:19:26;;;;;;;40.83;19.50;;;8.80;99.90;;;;;;5053976;28;20547;-67
2021/10/19 06:21:52;;;;;;;41.92;20.63;;;8.70;99.90;;;;;;5054020;28;20033;-68
2021/10/19 06:24:18;;;;;;;43.38;20.77;;;8.80;99.90;;;;;;5052826;28;20101;-68
2021/10/19 06:26:47;;;;;;;41.70;20.70;;;8.80;99.90;;;;;;5052370;28;20056;-68
2021/10/19 06:29:14;;;;;;;48.55;21.88;;;8.80;99.90;;;;;;5054300;28;20488;-68
2021/10/19 06:31:41;;;;;;;39.75;21.52;;;8.80;99.90;;;;;;5069195;28;20104;-68
2021/10/19 06:34:08;;;;;;;43.05;22.00;;;8.80;99.90;;;;;;5069614;28;20025;-68
2021/10/19 06:36:34;;;;;;;39.28;20.73;;;8.80;99.90;;;;;;5053922;28;20386;-68
2021/10/19 06:39:00;;;;;;;47.50;21.63;;;8.80;99.90;;;;;;5053833;28;20036;-68
2021/10/19 06:41:26;;;;;;;47.60;24.15;;;8.80;99.90;;;;;;5068939;28;20116;-63
2021/10/19 06:43:52;;;;;;;42.90;21.48;;;8.90;99.90;;;;;;5053507;28;20464;-74
2021/10/19 06:46:18;;;;;;;40.90;21.08;;;8.90;99.90;;;;;;5069472;28;20056;-67
2021/10/19 06:48:44;;;;;;;43.60;22.35;;;8.90;99.90;;;;;;5068722;28;20068;-68
2021/10/19 06:51:09;;;;;;;46.03;22.15;;;8.90;99.90;;;;;;5068929;28;20540;-68
2021/10/19 06:53:36;;;;;;;43.17;20.80;;;8.90;99.90;;;;;;5053584;28;20079;-68
2021/10/19 06:56:02;;;;;;;43.40;20.88;;;9.00;99.90;;;;;;5053839;28;20037;-68
2021/10/19 06:58:28;;;;;;;35.28;18.42;;;9.00;99.90;;;;;;5053596;28;20031;-68
2021/10/19 07:00:56;;;;;;;36.47;18.38;;;9.10;99.90;;;;;;5053598;28;20108;-69
2021/10/19 07:03:24;;;;;;;39.63;20.40;;;9.10;99.90;;;;;;5053540;28;20036;-68
2021/10/19 07:05:50;;;;;;;40.15;20.27;;;9.10;99.90;;;;;;5052981;28;20036;-68
2021/10/19 07:08:17;;;;;;;37.30;20.23;;;9.10;99.90;;;;;;5068816;28;20029;-67
2021/10/19 07:10:43;;;;;;;38.05;19.35;;;9.10;99.90;;;;;;5053142;28;20082;-68
2021/10/19 07:13:09;;;;;;;37.80;20.13;;;9.20;99.90;;;;;;5053105;28;20052;-68
2021/10/19 07:15:36;;;;;;;44.55;21.45;;;9.10;99.90;;;;;;5068628;28;20473;-67
2021/10/19 07:18:06;;;;;;;43.75;21.45;;;9.10;99.90;;;;;;5053079;28;20371;-67
2021/10/19 07:20:32;;;;;;;42.22;20.88;;;9.10;99.90;;;;;;5052931;28;20033;-68
2021/10/19 07:23:01;;;;;;;38.35;21.50;;;9.10;99.90;;;;;;5035327;28;20351;-68
2021/10/19 07:25:28;;;;;;;41.10;20.95;;;9.20;99.90;;;;;;5053269;28;20033;-68
2021/10/19 07:27:57;;;;;;;42.42;21.98;;;9.20;99.90;;;;;;5052832;28;20033;-67
2021/10/19 07:30:24;;;;;;;41.45;20.85;;;9.20;99.90;;;;;;5068007;28;20036;-69
2021/10/19 07:32:50;;;;;;;42.38;22.65;;;9.20;99.90;;;;;;5052919;28;20025;-69
2021/10/19 07:35:18;;;;;;;45.25;21.92;;;9.20;99.90;;;;;;5053055;28;20055;-69
2021/10/19 07:37:44;;;;;;;39.13;20.58;;;9.30;99.90;;;;;;5050673;28;20153;-69
2021/10/19 07:40:11;;;;;;;39.20;20.92;;;9.30;99.90;;;;;;5052639;28;20025;-69
2021/10/19 07:42:38;;;;;;;36.03;19.10;;;9.30;99.90;;;;;;5067936;28;20080;-69
2021/10/19 07:45:07;;;;;;;37.65;20.23;;;9.40;99.90;;;;;;5052530;28;20147;-69
2021/10/19 07:47:33;;;;;;;41.40;21.08;;;9.30;99.90;;;;;;5052247;28;20029;-70
2021/10/19 07:49:59;;;;;;;43.60;21.70;;;9.40;99.90;;;;;;5052382;28;20033;-70
2021/10/19 07:52:25;;;;;;;40.38;20.00;;;9.40;99.90;;;;;;5051957;28;20021;-69
2021/10/19 07:54:51;;;;;;;36.53;19.35;;;9.40;99.90;;;;;;5052533;28;20078;-71
2021/10/19 07:57:16;;;;;;;40.85;20.98;;;9.40;99.90;;;;;;5064081;28;20112;-70
2021/10/19 07:59:42;;;;;;;41.33;20.95;;;9.40;99.90;;;;;;5032081;28;20372;-71
2021/10/19 08:02:08;;;;;;;40.38;21.20;;;9.40;99.90;;;;;;5048042;28;20025;-70
2021/10/19 08:04:34;;;;;;;38.22;20.80;;;9.40;99.90;;;;;;5032482;28;20029;-71
2021/10/19 08:07:00;;;;;;;40.03;21.38;;;9.40;99.90;;;;;;5047526;28;20037;-70
2021/10/19 08:09:26;;;;;;;42.28;21.13;;;9.50;99.90;;;;;;5032612;28;20080;-71
2021/10/19 08:11:52;;;;;;;43.28;21.70;;;9.50;99.90;;;;;;5047624;28;20053;-71
2021/10/19 08:14:18;;;;;;;43.03;22.25;;;9.60;99.90;;;;;;5047375;28;20040;-71
2021/10/19 08:16:44;;;;;;;40.53;21.65;;;9.60;99.90;;;;;;5031989;28;20025;-72
2021/10/19 08:19:10;;;;;;;52.40;23.10;;;9.60;99.90;;;;;;5032089;28;20092;-70
2021/10/19 08:21:36;;;;;;;44.95;22.10;;;9.70;99.90;;;;;;5047697;28;20162;-68
2021/10/19 08:24:02;;;;;;;43.28;21.60;;;9.70;99.90;;;;;;5031049;28;20033;-69
2021/10/19 08:26:32;;;;;;;47.40;22.20;;;9.80;99.90;;;;;;5032464;28;20104;-70
2021/10/19 08:29:03;;;;;;;42.00;21.88;;;9.80;99.90;;;;;;5031803;28;20034;-70
2021/10/19 08:31:31;;;;;;;47.88;23.58;;;9.80;99.90;;;;;;5047617;28;20028;-70
2021/10/19 08:33:58;;;;;;;47.15;22.05;;;9.80;99.90;;;;;;5063849;28;20037;-69
2021/10/19 08:36:25;;;;;;;46.70;23.30;;;9.80;99.90;;;;;;5032017;28;20041;-69
2021/10/19 08:38:51;;;;;;;40.13;21.40;;;9.90;99.90;;;;;;5030551;28;20044;-69
2021/10/19 08:41:20;;;;;;;49.60;23.88;;;9.90;99.90;;;;;;5032063;28;20033;-69
2021/10/19 08:43:47;;;;;;;48.30;24.98;;;10.00;99.90;;;;;;5031373;28;20037;-67
2021/10/19 08:46:15;;;;;;;47.50;23.75;;;10.00;99.90;;;;;;5032084;28;20036;-69
2021/10/19 08:48:41;;;;;;;51.28;22.17;;;10.00;99.90;;;;;;5048405;28;20035;-70
2021/10/19 08:51:11;;;;;;;42.15;22.45;;;10.00;99.90;;;;;;5034777;28;20038;-69
2021/10/19 08:53:42;;;;;;;48.75;22.80;;;10.00;99.90;;;;;;5051407;28;20037;-69
2021/10/19 08:56:09;;;;;;;42.97;22.15;;;10.10;99.90;;;;;;5036060;28;20029;-69
2021/10/19 08:58:38;;;;;;;41.13;23.77;;;10.10;99.90;;;;;;5051317;28;20040;-69
2021/10/19 09:01:10;;;;;;;48.72;24.63;;;10.10;99.90;;;;;;5035841;28;20475;-68
2021/10/19 09:03:47;;;;;;;47.22;22.95;;;10.10;99.90;;;;;;5036109;28;20038;-69
2021/10/19 09:06:13;;;;;;;39.88;21.50;;;10.10;99.90;;;;;;5050934;28;20021;-69
2021/10/19 09:08:52;;;;;;;41.08;20.65;;;10.10;99.90;;;;;;5035711;28;20056;-69
2021/10/19 09:11:18;;;;;;;45.25;20.55;;;10.10;99.90;;;;;;5035629;28;20041;-68
2021/10/19 09:13:54;;;;;;;38.78;20.83;;;10.20;99.90;;;;;;5035270;28;20441;-68
2021/10/19 09:16:42;;;;;;;41.40;20.38;;;10.20;99.90;;;;;;5051134;28;20030;-69
2021/10/19 09:19:15;;;;;;;45.58;21.20;;;10.30;99.90;;;;;;5035075;28;20128;-69
2021/10/19 09:21:55;;;;;;;35.13;19.42;;;10.40;99.90;;;;;;5035811;28;20026;-68
2021/10/19 09:24:21;;;;;;;39.67;19.50;;;10.40;99.90;;;;;;5035784;28;20041;-68
2021/10/19 09:27:00;;;;;;;34.67;18.92;;;10.40;99.90;;;;;;5035081;28;20442;-68
2021/10/19 09:29:29;;;;;;;38.10;18.35;;;10.50;99.90;;;;;;5050357;28;20478;-68
2021/10/19 09:32:03;;;;;;;38.70;19.75;;;10.50;99.90;;;;;;5035309;28;20124;-68
2021/10/19 09:34:32;;;;;;;34.85;18.08;;;10.50;99.90;;;;;;5049951;28;20037;-68
2021/10/19 09:37:00;;;;;;;34.70;19.15;;;10.60;99.90;;;;;;5034784;28;20429;-68
2021/10/19 09:39:37;;;;;;;33.95;18.23;;;10.70;99.90;;;;;;5049897;28;20485;-69
2021/10/19 09:42:26;;;;;;;30.90;18.23;;;10.70;99.90;;;;;;5033862;28;20032;-69
2021/10/19 09:45:00;;;;;;;30.75;16.30;;;10.90;99.90;;;;;;5034460;28;20037;-69
2021/10/19 09:47:28;;;;;;;27.17;16.23;;;11.10;99.90;;;;;;5034992;28;20119;-69
2021/10/19 09:49:55;;;;;;;27.58;15.32;;;11.20;99.90;;;;;;5049724;28;20021;-69
2021/10/19 09:52:21;;;;;;;28.58;15.85;;;11.30;99.90;;;;;;5050370;28;20076;-69
2021/10/19 09:54:53;;;;;;;22.90;13.30;;;11.40;99.90;;;;;;5034508;28;20474;-69
2021/10/19 09:57:20;;;;;;;18.90;12.52;;;11.50;99.90;;;;;;5034849;28;20071;-69
2021/10/19 09:59:47;;;;;;;20.95;12.95;;;11.60;99.90;;;;;;5049360;28;20113;-69
2021/10/19 10:02:16;;;;;;;22.23;13.60;;;11.60;99.90;;;;;;5060235;28;20100;-69
2021/10/19 10:04:42;;;;;;;26.60;14.13;;;11.60;99.90;;;;;;5069512;28;20432;-69
2021/10/19 10:07:12;;;;;;;26.92;14.25;;;11.70;99.90;;;;;;5069546;28;20063;-69
2021/10/19 10:09:40;;;;;;;19.70;13.18;;;11.80;99.90;;;;;;5069775;28;20022;-69
2021/10/19 10:12:08;;;;;;;23.17;13.35;;;11.80;99.90;;;;;;5069388;28;20032;-69
2021/10/19 10:14:46;;;;;;;24.15;12.32;;;11.90;99.90;;;;;;5069457;28;20040;-70
2021/10/19 10:17:13;;;;;;;19.58;11.77;;;11.80;99.90;;;;;;5052824;28;20037;-70
2021/10/19 10:19:41;;;;;;;20.75;13.32;;;11.80;99.90;;;;;;5069568;28;20418;-70
2021/10/19 10:22:29;;;;;;;20.52;12.30;;;11.80;99.90;;;;;;5069619;28;20048;-69
2021/10/19 10:25:08;;;;;;;19.38;12.27;;;11.90;99.90;;;;;;5053953;28;20040;-69
2021/10/19 10:27:35;;;;;;;22.23;12.85;;;11.90;99.90;;;;;;5069439;28;20025;-69
2021/10/19 10:30:02;;;;;;;19.52;11.45;;;12.00;99.90;;;;;;5069172;28;20029;-69
2021/10/19 10:32:33;;;;;;;20.13;12.38;;;12.10;99.90;;;;;;5054271;28;20029;-68
2021/10/19 10:35:11;;;;;;;19.95;11.00;;;12.10;99.90;;;;;;5053684;28;20593;-68
2021/10/19 10:37:50;;;;;;;20.27;11.75;;;12.20;99.90;;;;;;5054008;28;20025;-68
2021/10/19 10:40:42;;;;;;;17.55;11.48;;;12.20;99.90;;;;;;5053498;28;20040;-68
2021/10/19 10:43:26;;;;;;;16.95;11.25;;;12.30;99.90;;;;;;5052223;28;20040;-68
2021/10/19 10:46:19;;;;;;;18.25;11.40;;;12.40;99.90;;;;;;5068249;28;20405;-68
2021/10/19 10:48:45;;;;;;;17.23;10.82;;;12.40;99.90;;;;;;5068890;28;20036;-68
2021/10/19 10:51:14;;;;;;;18.63;11.13;;;12.30;99.90;;;;;;5068769;28;20485;-68
2021/10/19 10:53:44;;;;;;;18.75;12.30;;;12.40;99.90;;;;;;5053424;28;20029;-68
2021/10/19 10:56:13;;;;;;;18.83;11.15;;;12.40;99.90;;;;;;5052958;28;20431;-69
2021/10/19 10:58:42;;;;;;;18.60;10.00;;;12.40;99.90;;;;;;5053617;28;20029;-68
2021/10/19 11:01:23;;;;;;;15.32;10.20;;;12.50;99.90;;;;;;5051897;28;20025;-68
2021/10/19 11:04:01;;;;;;;18.13;10.82;;;12.60;99.90;;;;;;5068402;28;20393;-68
2021/10/19 11:06:27;;;;;;;19.95;10.30;;;12.60;99.90;;;;;;5067511;28;20115;-68
2021/10/19 11:09:06;;;;;;;16.42;10.10;;;12.70;99.90;;;;;;5052895;28;20163;-68
2021/10/19 11:11:39;;;;;;;16.30;9.95;;;12.70;99.90;;;;;;5067468;28;20049;-68
2021/10/19 11:14:20;;;;;;;19.92;10.60;;;12.70;99.90;;;;;;5052546;28;20501;-68
2021/10/19 11:16:56;;;;;;;16.90;10.48;;;12.80;99.90;;;;;;5067974;28;20450;-68
2021/10/19 11:19:27;;;;;;;16.05;9.85;;;12.90;99.90;;;;;;5052883;28;20516;-67
2021/10/19 11:21:56;;;;;;;14.80;9.32;;;13.00;99.90;;;;;;5053075;28;20573;-67
2021/10/19 11:24:25;;;;;;;15.70;9.15;;;13.00;99.90;;;;;;5068594;28;20104;-67
2021/10/19 11:26:51;;;;;;;15.15;9.07;;;13.10;99.90;;;;;;5053093;28;20116;-69
2021/10/19 11:29:19;;;;;;;14.35;9.38;;;13.20;99.90;;;;;;5068334;28;20164;-68
2021/10/19 11:31:46;;;;;;;14.88;9.20;;;13.30;99.90;;;;;;5052621;28;20060;-68
2021/10/19 11:34:12;;;;;;;11.63;7.07;;;13.30;99.90;;;;;;5067993;28;20123;-67
2021/10/19 11:36:38;;;;;;;16.55;8.57;;;13.40;99.90;;;;;;5068082;28;20451;-68
2021/10/19 11:39:12;;;;;;;12.45;7.90;;;13.50;99.90;;;;;;5052718;28;20037;-67
2021/10/19 11:41:42;;;;;;;15.32;8.43;;;13.50;99.90;;;;;;5052520;28;20120;-68
2021/10/19 11:44:10;;;;;;;13.98;8.20;;;13.70;99.90;;;;;;5052578;28;20033;-68
2021/10/19 11:46:36;;;;;;;12.93;8.25;;;13.80;99.90;;;;;;5052880;28;20025;-67
2021/10/19 11:49:16;;;;;;;16.58;7.70;;;13.90;99.90;;;;;;5052231;28;20063;-67
2021/10/19 11:51:48;;;;;;;13.60;8.57;;;14.00;99.90;;;;;;5052411;28;20037;-67
2021/10/19 11:54:16;;;;;;;13.13;7.88;;;13.90;99.90;;;;;;5067035;28;20125;-67
2021/10/19 11:56:58;;;;;;;13.35;7.72;;;14.00;99.90;;;;;;5051873;28;20025;-68
2021/10/19 11:59:25;;;;;;;13.10;7.90;;;14.10;99.90;;;;;;5067291;28;20029;-68
2021/10/19 12:01:53;;;;;;;14.23;8.00;;;14.20;99.90;;;;;;5051089;28;20025;-68
2021/10/19 12:04:25;;;;;;;13.80;7.85;;;14.30;99.90;;;;;;5052342;28;20032;-68
2021/10/19 12:06:52;;;;;;;11.35;7.45;;;14.60;99.90;;;;;;5052367;28;20029;-67
2021/10/19 12:09:22;;;;;;;11.10;7.40;;;14.80;99.90;;;;;;5052025;28;20421;-67
2021/10/19 12:12:00;;;;;;;15.20;7.20;;;14.90;99.90;;;;;;5052263;28;20025;-68
2021/10/19 12:14:39;;;;;;;12.05;7.28;;;14.90;99.90;;;;;;5052310;28;20137;-68
2021/10/19 12:17:07;;;;;;;11.90;7.80;;;14.90;99.90;;;;;;5052496;28;20064;-68
2021/10/19 12:19:36;;;;;;;12.52;7.70;;;14.80;99.90;;;;;;5051882;28;20045;-68
2021/10/19 12:22:09;;;;;;;14.18;7.82;;;14.60;99.90;;;;;;5067037;28;20379;-68
2021/10/19 12:24:47;;;;;;;13.85;7.65;;;14.60;99.90;;;;;;5051848;28;20076;-68
2021/10/19 12:27:18;;;;;;;13.25;8.27;;;14.70;99.90;;;;;;5067549;28;20052;-67
2021/10/19 12:29:47;;;;;;;13.52;8.32;;;14.70;99.90;;;;;;5052138;28;20029;-67
2021/10/19 12:32:13;;;;;;;12.40;8.13;;;14.80;99.90;;;;;;5051797;28;20032;-67
2021/10/19 12:34:39;;;;;;;14.02;7.88;;;14.80;99.90;;;;;;5051965;28;20029;-67
2021/10/19 12:37:08;;;;;;;13.13;7.63;;;14.90;99.90;;;;;;5051630;28;20048;-67
2021/10/19 12:39:44;;;;;;;16.27;7.78;;;14.90;99.90;;;;;;5067215;28;20057;-68